sensor_id;sensor_type;location;lat;lon;timestamp;pressure;altitude;pressure_sealevel;temperature;humidity
12468;BME280;57850;52.922;6.256;2022-09-12T00:00:38;99411.97;;;17.00;100.00
12468;BME280;57850;52.922;6.256;2022-09-12T00:03:05;99402.22;;;16.91;100.00
12468;BME280;57850;52.922;6.256;2022-09-12T00:05:31;99386.00;;;16.95;100.00
12468;BME280;57850;52.922;6.256;2022-09-12T00:07:59;99392.25;;;16.94;100.00
12468;BME280;57850;52.922;6.256;2022-09-12T00:10:26;99396.13;;;16.70;100.00
12468;BME280;57850;52.922;6.256;2022-09-12T00:12:52;99374.41;;;16.77;100.00
12468;BME280;57850;52.922;6.256;2022-09-12T00:15:19;99363.28;;;16.94;100.00
12468;BME280;57850;52.922;6.256;2022-09-12T00:17:45;99374.47;;;16.87;100.00
12468;BME280;57850;52.922;6.256;2022-09-12T00:20:12;99388.69;;;16.75;100.00
12468;BME280;57850;52.922;6.256;2022-09-12T00:22:39;99392.78;;;16.68;100.00
12468;BME280;57850;52.922;6.256;2022-09-12T00:25:07;99381.31;;;16.69;100.00
12468;BME280;57850;52.922;6.256;2022-09-12T00:27:33;99376.56;;;16.63;100.00
12468;BME280;57850;52.922;6.256;2022-09-12T00:30:00;99385.47;;;16.71;100.00
12468;BME280;57850;52.922;6.256;2022-09-12T00:32:27;99373.41;;;16.69;100.00
12468;BME280;57850;52.922;6.256;2022-09-12T00:34:53;99378.72;;;16.57;100.00
12468;BME280;57850;52.922;6.256;2022-09-12T00:37:20;99376.81;;;16.59;100.00
12468;BME280;57850;52.922;6.256;2022-09-12T00:39:47;99392.56;;;16.39;100.00
12468;BME280;57850;52.922;6.256;2022-09-12T00:42:15;99378.06;;;16.44;100.00
12468;BME280;57850;52.922;6.256;2022-09-12T00:44:48;99374.19;;;16.48;100.00
12468;BME280;57850;52.922;6.256;2022-09-12T00:47:19;99373.59;;;16.56;100.00
12468;BME280;57850;52.922;6.256;2022-09-12T00:49:49;99381.09;;;16.60;100.00
12468;BME280;57850;52.922;6.256;2022-09-12T00:52:21;99394.31;;;16.49;100.00
12468;BME280;57850;52.922;6.256;2022-09-12T00:54:54;99399.63;;;16.38;100.00
12468;BME280;57850;52.922;6.256;2022-09-12T00:57:27;99390.34;;;16.34;100.00
12468;BME280;57850;52.922;6.256;2022-09-12T00:59:59;99377.16;;;16.34;100.00
12468;BME280;57850;52.922;6.256;2022-09-12T01:02:28;99386.53;;;16.27;100.00
12468;BME280;57850;52.922;6.256;2022-09-12T01:04:55;99369.38;;;16.33;100.00
12468;BME280;57850;52.922;6.256;2022-09-12T01:07:23;99369.25;;;16.14;100.00
12468;BME280;57850;52.922;6.256;2022-09-12T01:09:54;99383.47;;;16.22;100.00
12468;BME280;57850;52.922;6.256;2022-09-12T01:12:21;99390.88;;;16.17;100.00
12468;BME280;57850;52.922;6.256;2022-09-12T01:14:49;99363.28;;;16.32;100.00
12468;BME280;57850;52.922;6.256;2022-09-12T01:17:15;99372.41;;;16.28;100.00
12468;BME280;57850;52.922;6.256;2022-09-12T01:23:10;99387.28;;;16.18;100.00
12468;BME280;57850;52.922;6.256;2022-09-12T01:25:59;99422.53;;;15.95;100.00
12468;BME280;57850;52.922;6.256;2022-09-12T01:28:45;99416.88;;;15.45;100.00
12468;BME280;57850;52.922;6.256;2022-09-12T01:31:22;99366.16;;;15.77;100.00
12468;BME280;57850;52.922;6.256;2022-09-12T01:34:02;99353.50;;;16.02;100.00
12468;BME280;57850;52.922;6.256;2022-09-12T01:36:40;99346.56;;;16.01;100.00
12468;BME280;57850;52.922;6.256;2022-09-12T01:39:19;99357.50;;;15.86;100.00
12468;BME280;57850;52.922;6.256;2022-09-12T01:41:51;99360.22;;;15.95;100.00
12468;BME280;57850;52.922;6.256;2022-09-12T01:44:28;99371.59;;;15.96;100.00
12468;BME280;57850;52.922;6.256;2022-09-12T01:47:01;99380.94;;;15.89;100.00
12468;BME280;57850;52.922;6.256;2022-09-12T01:49:37;99384.66;;;15.86;100.00
12468;BME280;57850;52.922;6.256;2022-09-12T01:52:10;99401.19;;;15.77;100.00
12468;BME280;57850;52.922;6.256;2022-09-12T01:54:43;99399.41;;;15.78;100.00
12468;BME280;57850;52.922;6.256;2022-09-12T01:57:16;99367.44;;;15.93;100.00
12468;BME280;57850;52.922;6.256;2022-09-12T01:59:47;99367.75;;;16.00;100.00
12468;BME280;57850;52.922;6.256;2022-09-12T02:02:20;99371.84;;;15.93;100.00
12468;BME280;57850;52.922;6.256;2022-09-12T02:04:50;99374.41;;;16.04;100.00
12468;BME280;57850;52.922;6.256;2022-09-12T02:07:22;99323.88;;;16.21;100.00
12468;BME280;57850;52.922;6.256;2022-09-12T02:09:55;99292.03;;;16.24;100.00
12468;BME280;57850;52.922;6.256;2022-09-12T02:12:25;99343.19;;;16.11;100.00
12468;BME280;57850;52.922;6.256;2022-09-12T02:14:56;99295.81;;;16.31;100.00
12468;BME280;57850;52.922;6.256;2022-09-12T02:17:28;99330.78;;;16.01;100.00
12468;BME280;57850;52.922;6.256;2022-09-12T02:20:00;99290.44;;;16.12;100.00
12468;BME280;57850;52.922;6.256;2022-09-12T02:22:29;99298.59;;;16.09;100.00
12468;BME280;57850;52.922;6.256;2022-09-12T02:24:59;99333.06;;;16.06;100.00
12468;BME280;57850;52.922;6.256;2022-09-12T02:27:29;99326.81;;;16.07;100.00
12468;BME280;57850;52.922;6.256;2022-09-12T02:29:57;99323.63;;;16.03;100.00
12468;BME280;57850;52.922;6.256;2022-09-12T02:32:30;99323.03;;;16.00;100.00
12468;BME280;57850;52.922;6.256;2022-09-12T02:35:00;99239.38;;;16.24;100.00
12468;BME280;57850;52.922;6.256;2022-09-12T02:37:40;99194.03;;;16.11;100.00
12468;BME280;57850;52.922;6.256;2022-09-12T02:40:10;99127.41;;;16.11;100.00
12468;BME280;57850;52.922;6.256;2022-09-12T02:42:38;99073.94;;;16.10;100.00
12468;BME280;57850;52.922;6.256;2022-09-12T02:45:05;99028.50;;;15.98;100.00
12468;BME280;57850;52.922;6.256;2022-09-12T02:47:37;98943.66;;;16.16;100.00
12468;BME280;57850;52.922;6.256;2022-09-12T02:50:06;98929.09;;;16.21;100.00
12468;BME280;57850;52.922;6.256;2022-09-12T02:52:33;98886.44;;;16.27;100.00
12468;BME280;57850;52.922;6.256;2022-09-12T02:55:01;98883.53;;;16.30;100.00
12468;BME280;57850;52.922;6.256;2022-09-12T02:57:29;98906.81;;;16.16;100.00
12468;BME280;57850;52.922;6.256;2022-09-12T02:59:59;98840.44;;;16.50;100.00
12468;BME280;57850;52.922;6.256;2022-09-12T03:02:32;98820.91;;;16.34;100.00
12468;BME280;57850;52.922;6.256;2022-09-12T03:05:25;98804.88;;;16.18;100.00
12468;BME280;57850;52.922;6.256;2022-09-12T03:08:04;98772.47;;;16.07;100.00
12468;BME280;57850;52.922;6.256;2022-09-12T03:10:41;98751.16;;;16.11;100.00
12468;BME280;57850;52.922;6.256;2022-09-12T03:13:19;98739.28;;;15.97;100.00
12468;BME280;57850;52.922;6.256;2022-09-12T03:15:58;98759.34;;;15.98;100.00
12468;BME280;57850;52.922;6.256;2022-09-12T03:18:40;98738.00;;;16.01;100.00
12468;BME280;57850;52.922;6.256;2022-09-12T03:21:12;98717.13;;;15.99;100.00
12468;BME280;57850;52.922;6.256;2022-09-12T03:23:47;98715.97;;;16.12;100.00
12468;BME280;57850;52.922;6.256;2022-09-12T03:26:19;98712.97;;;16.06;100.00
12468;BME280;57850;52.922;6.256;2022-09-12T03:28:48;98720.91;;;15.68;100.00
12468;BME280;57850;52.922;6.256;2022-09-12T03:31:18;98658.06;;;15.84;100.00
12468;BME280;57850;52.922;6.256;2022-09-12T03:33:45;98644.78;;;15.67;100.00
12468;BME280;57850;52.922;6.256;2022-09-12T03:36:18;98586.19;;;15.93;100.00
12468;BME280;57850;52.922;6.256;2022-09-12T03:38:46;98580.72;;;16.04;100.00
12468;BME280;57850;52.922;6.256;2022-09-12T03:41:13;98573.28;;;16.00;100.00
12468;BME280;57850;52.922;6.256;2022-09-12T03:43:40;98567.50;;;16.14;100.00
12468;BME280;57850;52.922;6.256;2022-09-12T03:46:06;98566.69;;;16.14;100.00
12468;BME280;57850;52.922;6.256;2022-09-12T03:48:33;98565.59;;;16.16;100.00
12468;BME280;57850;52.922;6.256;2022-09-12T03:51:00;98563.50;;;16.10;100.00
12468;BME280;57850;52.922;6.256;2022-09-12T03:53:28;98560.84;;;15.92;100.00
12468;BME280;57850;52.922;6.256;2022-09-12T03:55:54;98519.88;;;15.90;100.00
12468;BME280;57850;52.922;6.256;2022-09-12T03:58:22;98469.25;;;15.88;100.00
12468;BME280;57850;52.922;6.256;2022-09-12T04:00:48;98418.38;;;16.15;100.00
12468;BME280;57850;52.922;6.256;2022-09-12T04:03:15;98455.78;;;15.91;100.00
12468;BME280;57850;52.922;6.256;2022-09-12T04:05:43;98429.88;;;16.14;100.00
12468;BME280;57850;52.922;6.256;2022-09-12T04:08:10;98433.78;;;16.27;100.00
12468;BME280;57850;52.922;6.256;2022-09-12T04:10:38;98462.75;;;16.27;100.00
12468;BME280;57850;52.922;6.256;2022-09-12T04:13:04;98507.09;;;16.22;100.00
12468;BME280;57850;52.922;6.256;2022-09-12T04:15:31;98512.22;;;16.24;100.00
12468;BME280;57850;52.922;6.256;2022-09-12T04:17:57;98518.22;;;16.16;100.00
12468;BME280;57850;52.922;6.256;2022-09-12T04:20:24;98515.94;;;16.03;100.00
12468;BME280;57850;52.922;6.256;2022-09-12T04:22:50;98487.06;;;15.94;100.00
12468;BME280;57850;52.922;6.256;2022-09-12T04:25:16;98464.78;;;15.88;100.00
12468;BME280;57850;52.922;6.256;2022-09-12T04:27:44;98422.28;;;16.11;100.00
12468;BME280;57850;52.922;6.256;2022-09-12T04:30:11;98423.81;;;16.13;100.00
12468;BME280;57850;52.922;6.256;2022-09-12T04:32:38;98415.63;;;16.16;100.00
12468;BME280;57850;52.922;6.256;2022-09-12T04:35:05;98487.81;;;15.77;100.00
12468;BME280;57850;52.922;6.256;2022-09-12T04:37:32;98438.22;;;16.09;100.00
12468;BME280;57850;52.922;6.256;2022-09-12T04:39:58;98438.16;;;16.19;100.00
12468;BME280;57850;52.922;6.256;2022-09-12T04:42:25;98450.25;;;16.12;100.00
12468;BME280;57850;52.922;6.256;2022-09-12T04:44:53;98434.69;;;16.18;100.00
12468;BME280;57850;52.922;6.256;2022-09-12T04:47:20;98425.53;;;16.22;100.00
12468;BME280;57850;52.922;6.256;2022-09-12T04:49:47;98441.03;;;16.25;100.00
12468;BME280;57850;52.922;6.256;2022-09-12T04:52:15;98440.41;;;16.31;100.00
12468;BME280;57850;52.922;6.256;2022-09-12T04:54:41;98477.63;;;16.19;100.00
12468;BME280;57850;52.922;6.256;2022-09-12T04:57:09;98466.94;;;16.20;100.00
12468;BME280;57850;52.922;6.256;2022-09-12T04:59:37;98472.38;;;16.19;100.00
12468;BME280;57850;52.922;6.256;2022-09-12T05:02:05;98473.69;;;16.23;100.00
12468;BME280;57850;52.922;6.256;2022-09-12T05:04:31;98475.13;;;16.17;100.00
12468;BME280;57850;52.922;6.256;2022-09-12T05:06:58;98441.56;;;16.29;100.00
12468;BME280;57850;52.922;6.256;2022-09-12T05:09:24;98452.50;;;16.24;100.00
12468;BME280;57850;52.922;6.256;2022-09-12T05:11:51;98446.00;;;16.28;100.00
12468;BME280;57850;52.922;6.256;2022-09-12T05:14:17;98445.97;;;16.11;100.00
12468;BME280;57850;52.922;6.256;2022-09-12T05:16:44;98415.31;;;16.19;100.00
12468;BME280;57850;52.922;6.256;2022-09-12T05:19:12;98393.28;;;16.38;100.00
12468;BME280;57850;52.922;6.256;2022-09-12T05:21:38;98404.91;;;16.35;100.00
12468;BME280;57850;52.922;6.256;2022-09-12T05:24:05;98413.41;;;16.47;100.00
12468;BME280;57850;52.922;6.256;2022-09-12T05:26:31;98440.25;;;16.50;100.00
12468;BME280;57850;52.922;6.256;2022-09-12T05:28:58;98472.13;;;16.12;100.00
12468;BME280;57850;52.922;6.256;2022-09-12T05:31:26;98422.59;;;16.25;100.00
12468;BME280;57850;52.922;6.256;2022-09-12T05:33:55;98399.28;;;16.66;100.00
12468;BME280;57850;52.922;6.256;2022-09-12T05:36:24;98455.84;;;16.44;100.00
12468;BME280;57850;52.922;6.256;2022-09-12T05:38:52;98445.59;;;16.41;100.00
12468;BME280;57850;52.922;6.256;2022-09-12T05:41:20;98441.84;;;16.61;100.00
12468;BME280;57850;52.922;6.256;2022-09-12T05:43:51;98482.66;;;16.57;100.00
12468;BME280;57850;52.922;6.256;2022-09-12T05:46:19;98505.06;;;16.79;100.00
12468;BME280;57850;52.922;6.256;2022-09-12T05:48:47;98545.59;;;16.86;100.00
12468;BME280;57850;52.922;6.256;2022-09-12T05:51:15;98591.63;;;16.64;100.00
12468;BME280;57850;52.922;6.256;2022-09-12T05:53:46;98573.91;;;16.84;100.00
12468;BME280;57850;52.922;6.256;2022-09-12T05:56:14;98591.66;;;16.82;100.00
12468;BME280;57850;52.922;6.256;2022-09-12T05:58:43;98603.31;;;16.62;100.00
12468;BME280;57850;52.922;6.256;2022-09-12T06:01:11;98566.41;;;16.44;100.00
12468;BME280;57850;52.922;6.256;2022-09-12T06:03:40;98528.06;;;16.59;100.00
12468;BME280;57850;52.922;6.256;2022-09-12T06:06:07;98499.41;;;16.74;100.00
12468;BME280;57850;52.922;6.256;2022-09-12T06:08:37;98506.59;;;16.36;100.00
12468;BME280;57850;52.922;6.256;2022-09-12T06:11:06;98458.69;;;16.50;100.00
12468;BME280;57850;52.922;6.256;2022-09-12T06:13:35;98434.34;;;16.66;100.00
12468;BME280;57850;52.922;6.256;2022-09-12T06:16:03;98440.94;;;16.70;100.00
12468;BME280;57850;52.922;6.256;2022-09-12T06:18:30;98423.91;;;16.82;100.00
12468;BME280;57850;52.922;6.256;2022-09-12T06:21:01;98444.69;;;16.68;100.00
12468;BME280;57850;52.922;6.256;2022-09-12T06:23:28;98424.59;;;16.67;100.00
12468;BME280;57850;52.922;6.256;2022-09-12T06:25:54;98377.81;;;16.78;100.00
12468;BME280;57850;52.922;6.256;2022-09-12T06:28:22;98383.69;;;16.72;100.00
12468;BME280;57850;52.922;6.256;2022-09-12T06:30:48;98370.41;;;16.82;100.00
12468;BME280;57850;52.922;6.256;2022-09-12T06:33:15;98359.81;;;16.74;100.00
12468;BME280;57850;52.922;6.256;2022-09-12T06:35:42;98328.72;;;16.77;100.00
12468;BME280;57850;52.922;6.256;2022-09-12T06:38:09;98300.06;;;17.08;100.00
12468;BME280;57850;52.922;6.256;2022-09-12T06:40:40;98289.22;;;17.11;100.00
12468;BME280;57850;52.922;6.256;2022-09-12T06:43:06;98323.00;;;17.16;100.00
12468;BME280;57850;52.922;6.256;2022-09-12T06:45:34;98324.81;;;17.15;100.00
12468;BME280;57850;52.922;6.256;2022-09-12T06:48:03;98317.28;;;17.28;100.00
12468;BME280;57850;52.922;6.256;2022-09-12T06:50:30;98312.81;;;17.21;100.00
12468;BME280;57850;52.922;6.256;2022-09-12T06:52:56;98340.44;;;17.50;100.00
12468;BME280;57850;52.922;6.256;2022-09-12T06:55:23;98399.41;;;17.49;100.00
12468;BME280;57850;52.922;6.256;2022-09-12T06:57:50;98406.66;;;17.47;100.00
12468;BME280;57850;52.922;6.256;2022-09-12T07:00:16;98431.34;;;17.38;100.00
12468;BME280;57850;52.922;6.256;2022-09-12T07:02:44;98441.50;;;17.33;100.00
12468;BME280;57850;52.922;6.256;2022-09-12T07:05:11;98414.78;;;17.54;100.00
12468;BME280;57850;52.922;6.256;2022-09-12T07:07:38;98421.63;;;17.81;100.00
12468;BME280;57850;52.922;6.256;2022-09-12T07:10:05;98456.00;;;18.05;100.00
12468;BME280;57850;52.922;6.256;2022-09-12T07:12:31;98516.44;;;18.16;100.00
12468;BME280;57850;52.922;6.256;2022-09-12T07:14:58;98566.66;;;17.98;100.00
12468;BME280;57850;52.922;6.256;2022-09-12T07:17:25;98565.09;;;18.13;100.00
12468;BME280;57850;52.922;6.256;2022-09-12T07:19:53;98579.72;;;18.08;100.00
12468;BME280;57850;52.922;6.256;2022-09-12T07:22:19;98578.31;;;18.22;100.00
12468;BME280;57850;52.922;6.256;2022-09-12T07:24:46;98594.69;;;18.33;100.00
12468;BME280;57850;52.922;6.256;2022-09-12T07:27:12;98592.03;;;18.33;100.00
12468;BME280;57850;52.922;6.256;2022-09-12T07:29:39;98595.50;;;18.26;100.00
12468;BME280;57850;52.922;6.256;2022-09-12T07:32:05;98578.00;;;18.25;100.00
12468;BME280;57850;52.922;6.256;2022-09-12T07:34:35;98559.66;;;18.23;100.00
12468;BME280;57850;52.922;6.256;2022-09-12T07:37:03;98527.50;;;18.19;100.00
12468;BME280;57850;52.922;6.256;2022-09-12T07:39:30;98504.53;;;18.12;100.00
12468;BME280;57850;52.922;6.256;2022-09-12T07:41:56;98463.66;;;18.40;100.00
12468;BME280;57850;52.922;6.256;2022-09-12T07:44:24;98455.97;;;18.63;100.00
12468;BME280;57850;52.922;6.256;2022-09-12T07:46:51;98487.34;;;18.66;100.00
12468;BME280;57850;52.922;6.256;2022-09-12T07:49:17;98477.41;;;18.68;100.00
12468;BME280;57850;52.922;6.256;2022-09-12T07:51:44;98516.25;;;18.84;100.00
12468;BME280;57850;52.922;6.256;2022-09-12T07:54:12;98522.66;;;18.65;100.00
12468;BME280;57850;52.922;6.256;2022-09-12T07:56:38;98500.22;;;18.77;100.00
12468;BME280;57850;52.922;6.256;2022-09-12T07:59:05;98513.72;;;18.50;100.00
12468;BME280;57850;52.922;6.256;2022-09-12T08:01:32;98519.53;;;18.69;100.00
12468;BME280;57850;52.922;6.256;2022-09-12T08:03:59;98524.16;;;18.84;100.00
12468;BME280;57850;52.922;6.256;2022-09-12T08:06:27;98533.91;;;19.15;100.00
12468;BME280;57850;52.922;6.256;2022-09-12T08:08:55;98582.66;;;19.21;100.00
12468;BME280;57850;52.922;6.256;2022-09-12T08:11:25;98660.78;;;18.99;100.00
12468;BME280;57850;52.922;6.256;2022-09-12T08:13:52;98639.66;;;19.23;100.00
12468;BME280;57850;52.922;6.256;2022-09-12T08:16:21;98672.28;;;19.56;100.00
12468;BME280;57850;52.922;6.256;2022-09-12T08:18:48;98737.09;;;19.44;100.00
12468;BME280;57850;52.922;6.256;2022-09-12T08:21:16;98740.44;;;19.54;100.00
12468;BME280;57850;52.922;6.256;2022-09-12T08:23:44;98731.00;;;19.84;100.00
12468;BME280;57850;52.922;6.256;2022-09-12T08:26:11;98757.63;;;19.91;100.00
12468;BME280;57850;52.922;6.256;2022-09-12T08:28:39;98801.00;;;19.98;100.00
12468;BME280;57850;52.922;6.256;2022-09-12T08:31:11;98807.63;;;20.34;100.00
12468;BME280;57850;52.922;6.256;2022-09-12T08:33:39;98878.75;;;20.05;100.00
12468;BME280;57850;52.922;6.256;2022-09-12T08:36:10;98861.75;;;20.72;100.00
12468;BME280;57850;52.922;6.256;2022-09-12T08:38:38;98974.81;;;20.23;100.00
12468;BME280;57850;52.922;6.256;2022-09-12T08:41:10;98986.31;;;20.48;100.00
12468;BME280;57850;52.922;6.256;2022-09-12T08:43:50;98945.41;;;20.66;100.00
12468;BME280;57850;52.922;6.256;2022-09-12T08:46:22;99024.91;;;20.50;100.00
12468;BME280;57850;52.922;6.256;2022-09-12T08:48:50;98981.34;;;20.93;100.00
12468;BME280;57850;52.922;6.256;2022-09-12T08:51:19;99022.13;;;20.84;100.00
12468;BME280;57850;52.922;6.256;2022-09-12T08:53:46;99006.38;;;21.15;100.00
12468;BME280;57850;52.922;6.256;2022-09-12T08:56:14;99052.44;;;21.46;100.00
12468;BME280;57850;52.922;6.256;2022-09-12T08:58:43;99091.28;;;21.31;100.00
12468;BME280;57850;52.922;6.256;2022-09-12T09:01:19;99108.50;;;21.27;100.00
12468;BME280;57850;52.922;6.256;2022-09-12T09:04:00;99077.19;;;21.55;100.00
12468;BME280;57850;52.922;6.256;2022-09-12T09:06:52;99074.41;;;22.11;100.00
12468;BME280;57850;52.922;6.256;2022-09-12T09:09:28;99136.66;;;22.17;100.00
12468;BME280;57850;52.922;6.256;2022-09-12T09:12:06;99141.50;;;21.97;100.00
12468;BME280;57850;52.922;6.256;2022-09-12T09:14:58;99172.88;;;21.69;100.00
12468;BME280;57850;52.922;6.256;2022-09-12T09:17:33;99132.22;;;21.36;100.00
12468;BME280;57850;52.922;6.256;2022-09-12T09:20:06;99130.75;;;21.42;100.00
12468;BME280;57850;52.922;6.256;2022-09-12T09:22:41;99107.44;;;22.09;100.00
12468;BME280;57850;52.922;6.256;2022-09-12T09:25:15;99113.88;;;22.22;100.00
12468;BME280;57850;52.922;6.256;2022-09-12T09:27:46;99126.50;;;22.20;100.00
12468;BME280;57850;52.922;6.256;2022-09-12T09:30:17;99138.94;;;23.66;100.00
12468;BME280;57850;52.922;6.256;2022-09-12T09:32:48;99301.63;;;22.86;100.00
12468;BME280;57850;52.922;6.256;2022-09-12T09:35:17;99270.94;;;23.37;100.00
12468;BME280;57850;52.922;6.256;2022-09-12T09:37:58;99346.00;;;23.41;100.00
12468;BME280;57850;52.922;6.256;2022-09-12T09:40:34;99306.66;;;23.51;100.00
12468;BME280;57850;52.922;6.256;2022-09-12T09:43:11;99264.78;;;24.28;100.00
12468;BME280;57850;52.922;6.256;2022-09-12T09:45:42;99339.59;;;24.49;100.00
12468;BME280;57850;52.922;6.256;2022-09-12T09:48:15;99367.97;;;24.65;100.00
12468;BME280;57850;52.922;6.256;2022-09-12T09:50:42;99433.41;;;25.42;100.00
12468;BME280;57850;52.922;6.256;2022-09-12T09:53:21;99421.69;;;25.43;100.00
12468;BME280;57850;52.922;6.256;2022-09-12T09:55:52;99480.22;;;25.00;100.00
12468;BME280;57850;52.922;6.256;2022-09-12T09:58:28;99590.66;;;24.46;100.00
12468;BME280;57850;52.922;6.256;2022-09-12T10:00:59;99564.44;;;24.80;100.00
12468;BME280;57850;52.922;6.256;2022-09-12T10:03:32;99639.25;;;24.95;100.00
12468;BME280;57850;52.922;6.256;2022-09-12T10:06:01;100008.31;;;25.84;100.00
12468;BME280;57850;52.922;6.256;2022-09-12T10:08:33;100876.91;;;26.23;100.00
12468;BME280;57850;52.922;6.256;2022-09-12T10:11:02;101499.16;;;27.39;100.00
12468;BME280;57850;52.922;6.256;2022-09-12T10:13:34;101652.38;;;27.63;100.00
12468;BME280;57850;52.922;6.256;2022-09-12T10:16:05;101674.66;;;26.08;100.00
12468;BME280;57850;52.922;6.256;2022-09-12T10:18:38;101692.94;;;27.31;100.00
12468;BME280;57850;52.922;6.256;2022-09-12T10:21:18;101702.09;;;26.10;100.00
12468;BME280;57850;52.922;6.256;2022-09-12T10:23:47;101702.25;;;27.18;100.00
12468;BME280;57850;52.922;6.256;2022-09-12T10:26:18;101722.28;;;27.52;100.00
12468;BME280;57850;52.922;6.256;2022-09-12T10:28:49;101719.00;;;27.00;100.00
12468;BME280;57850;52.922;6.256;2022-09-12T10:31:23;101702.94;;;29.57;100.00
12468;BME280;57850;52.922;6.256;2022-09-12T10:33:54;101722.84;;;28.39;100.00
12468;BME280;57850;52.922;6.256;2022-09-12T10:36:22;101712.75;;;27.86;100.00
12468;BME280;57850;52.922;6.256;2022-09-12T10:38:50;101705.97;;;27.82;100.00
12468;BME280;57850;52.922;6.256;2022-09-12T10:41:19;101715.34;;;28.15;100.00
12468;BME280;57850;52.922;6.256;2022-09-12T10:43:47;101706.88;;;29.27;100.00
12468;BME280;57850;52.922;6.256;2022-09-12T10:46:26;101713.00;;;28.84;100.00
12468;BME280;57850;52.922;6.256;2022-09-12T10:49:11;101707.47;;;27.94;100.00
12468;BME280;57850;52.922;6.256;2022-09-12T10:51:38;101707.44;;;28.04;100.00
12468;BME280;57850;52.922;6.256;2022-09-12T10:54:09;101691.78;;;29.52;100.00
12468;BME280;57850;52.922;6.256;2022-09-12T10:56:39;101695.13;;;28.21;100.00
12468;BME280;57850;52.922;6.256;2022-09-12T10:59:20;101699.84;;;27.99;100.00
12468;BME280;57850;52.922;6.256;2022-09-12T11:01:55;101669.44;;;28.63;100.00
12468;BME280;57850;52.922;6.256;2022-09-12T11:04:39;101700.66;;;28.64;100.00
12468;BME280;57850;52.922;6.256;2022-09-12T11:07:36;101639.44;;;30.40;100.00
12468;BME280;57850;52.922;6.256;2022-09-12T11:10:17;101685.34;;;29.70;100.00
12468;BME280;57850;52.922;6.256;2022-09-12T11:12:52;101671.16;;;28.99;100.00
12468;BME280;57850;52.922;6.256;2022-09-12T11:15:34;101691.03;;;28.71;100.00
12468;BME280;57850;52.922;6.256;2022-09-12T11:18:13;101692.75;;;27.71;100.00
12468;BME280;57850;52.922;6.256;2022-09-12T11:21:00;101667.72;;;29.07;100.00
12468;BME280;57850;52.922;6.256;2022-09-12T11:23:47;101668.34;;;27.36;100.00
12468;BME280;57850;52.922;6.256;2022-09-12T11:26:29;101681.31;;;26.73;100.00
12468;BME280;57850;52.922;6.256;2022-09-12T11:29:06;101686.16;;;27.27;100.00
12468;BME280;57850;52.922;6.256;2022-09-12T11:31:52;101665.88;;;28.17;100.00
12468;BME280;57850;52.922;6.256;2022-09-12T11:34:31;101620.75;;;29.45;100.00
12468;BME280;57850;52.922;6.256;2022-09-12T11:37:12;101589.53;;;29.00;100.00
12468;BME280;57850;52.922;6.256;2022-09-12T11:39:47;101601.25;;;30.02;100.00
12468;BME280;57850;52.922;6.256;2022-09-12T11:42:20;101621.72;;;30.37;100.00
12468;BME280;57850;52.922;6.256;2022-09-12T11:44:55;101637.88;;;29.87;100.00
12468;BME280;57850;52.922;6.256;2022-09-12T11:47:25;101671.91;;;30.04;100.00
12468;BME280;57850;52.922;6.256;2022-09-12T11:49:55;101667.94;;;29.31;100.00
12468;BME280;57850;52.922;6.256;2022-09-12T11:52:23;101682.75;;;28.82;100.00
12468;BME280;57850;52.922;6.256;2022-09-12T11:54:57;101671.09;;;28.91;100.00
12468;BME280;57850;52.922;6.256;2022-09-12T11:57:32;101578.19;;;30.66;100.00
12468;BME280;57850;52.922;6.256;2022-09-12T12:00:04;101596.06;;;31.07;100.00
12468;BME280;57850;52.922;6.256;2022-09-12T12:02:38;101644.53;;;30.51;100.00
12468;BME280;57850;52.922;6.256;2022-09-12T12:05:18;101651.34;;;29.95;100.00
12468;BME280;57850;52.922;6.256;2022-09-12T12:07:51;101615.22;;;30.56;100.00
12468;BME280;57850;52.922;6.256;2022-09-12T12:10:33;101609.47;;;30.43;100.00
12468;BME280;57850;52.922;6.256;2022-09-12T12:13:02;101663.03;;;28.29;100.00
12468;BME280;57850;52.922;6.256;2022-09-12T12:15:33;101661.81;;;28.41;100.00
12468;BME280;57850;52.922;6.256;2022-09-12T12:18:06;101649.56;;;29.78;100.00
12468;BME280;57850;52.922;6.256;2022-09-12T12:20:35;101615.13;;;30.32;100.00
12468;BME280;57850;52.922;6.256;2022-09-12T12:23:02;101546.72;;;31.46;100.00
12468;BME280;57850;52.922;6.256;2022-09-12T12:25:39;101601.56;;;29.91;100.00
12468;BME280;57850;52.922;6.256;2022-09-12T12:28:06;101638.72;;;29.18;100.00
12468;BME280;57850;52.922;6.256;2022-09-12T12:30:58;101622.13;;;29.74;100.00
12468;BME280;57850;52.922;6.256;2022-09-12T12:34:18;101645.81;;;29.71;100.00
12468;BME280;57850;52.922;6.256;2022-09-12T12:36:47;101642.16;;;29.80;100.00
12468;BME280;57850;52.922;6.256;2022-09-12T12:46:08;101529.44;;;31.79;100.00
12468;BME280;57850;52.922;6.256;2022-09-12T12:51:59;101638.19;;;29.84;100.00
12468;BME280;57850;52.922;6.256;2022-09-12T12:54:46;101608.56;;;30.34;100.00
12468;BME280;57850;52.922;6.256;2022-09-12T12:57:17;101564.53;;;30.59;100.00
12468;BME280;57850;52.922;6.256;2022-09-12T12:59:47;101597.03;;;30.66;100.00
12468;BME280;57850;52.922;6.256;2022-09-12T13:02:18;101620.38;;;29.14;100.00
12468;BME280;57850;52.922;6.256;2022-09-12T13:04:47;101623.56;;;28.74;100.00
12468;BME280;57850;52.922;6.256;2022-09-12T13:07:24;101607.34;;;30.12;100.00
12468;BME280;57850;52.922;6.256;2022-09-12T13:09:51;101625.34;;;29.78;100.00
12468;BME280;57850;52.922;6.256;2022-09-12T13:12:20;101570.41;;;31.11;100.00
12468;BME280;57850;52.922;6.256;2022-09-12T13:14:51;101618.50;;;30.25;100.00
12468;BME280;57850;52.922;6.256;2022-09-12T13:17:22;101568.38;;;30.49;100.00
12468;BME280;57850;52.922;6.256;2022-09-12T13:19:52;101591.59;;;29.92;100.00